sensor_id;sensor_type;location;lat;lon;timestamp;P1;durP1;ratioP1;P2;durP2;ratioP2
65459;SDS011;52058;49.822;6.754;2022-07-21T00:01:27;6.18;;;4.90;;
65459;SDS011;52058;49.822;6.754;2022-07-21T00:03:52;7.18;;;4.85;;
65459;SDS011;52058;49.822;6.754;2022-07-21T00:06:17;7.47;;;5.10;;
65459;SDS011;52058;49.822;6.754;2022-07-21T00:08:43;5.43;;;4.45;;
65459;SDS011;52058;49.822;6.754;2022-07-21T00:11:08;5.70;;;4.80;;
65459;SDS011;52058;49.822;6.754;2022-07-21T00:13:34;5.47;;;4.72;;
65459;SDS011;52058;49.822;6.754;2022-07-21T00:15:59;5.25;;;4.72;;
65459;SDS011;52058;49.822;6.754;2022-07-21T00:18:25;5.40;;;4.72;;
65459;SDS011;52058;49.822;6.754;2022-07-21T00:20:53;5.10;;;4.60;;
65459;SDS011;52058;49.822;6.754;2022-07-21T00:23:22;5.00;;;4.40;;
65459;SDS011;52058;49.822;6.754;2022-07-21T00:25:48;5.80;;;4.60;;
65459;SDS011;52058;49.822;6.754;2022-07-21T00:28:14;5.45;;;4.57;;
65459;SDS011;52058;49.822;6.754;2022-07-21T00:30:39;7.22;;;4.47;;
65459;SDS011;52058;49.822;6.754;2022-07-21T00:33:04;6.68;;;4.80;;
65459;SDS011;52058;49.822;6.754;2022-07-21T00:35:30;5.18;;;4.68;;
65459;SDS011;52058;49.822;6.754;2022-07-21T00:37:55;8.70;;;4.93;;
65459;SDS011;52058;49.822;6.754;2022-07-21T00:40:20;6.35;;;4.82;;
65459;SDS011;52058;49.822;6.754;2022-07-21T00:42:46;5.45;;;4.57;;
65459;SDS011;52058;49.822;6.754;2022-07-21T00:45:11;5.10;;;4.57;;
65459;SDS011;52058;49.822;6.754;2022-07-21T00:47:37;6.22;;;4.85;;
65459;SDS011;52058;49.822;6.754;2022-07-21T00:50:04;5.80;;;4.93;;
65459;SDS011;52058;49.822;6.754;2022-07-21T00:52:32;5.57;;;4.57;;
65459;SDS011;52058;49.822;6.754;2022-07-21T00:54:57;7.07;;;4.93;;
65459;SDS011;52058;49.822;6.754;2022-07-21T00:57:23;5.93;;;4.63;;
65459;SDS011;52058;49.822;6.754;2022-07-21T00:59:48;5.70;;;5.20;;
65459;SDS011;52058;49.822;6.754;2022-07-21T01:02:14;6.47;;;5.05;;
65459;SDS011;52058;49.822;6.754;2022-07-21T01:04:40;7.03;;;6.03;;
65459;SDS011;52058;49.822;6.754;2022-07-21T01:07:05;5.72;;;4.80;;
65459;SDS011;52058;49.822;6.754;2022-07-21T01:09:31;5.97;;;4.68;;
65459;SDS011;52058;49.822;6.754;2022-07-21T01:11:58;5.68;;;5.07;;
65459;SDS011;52058;49.822;6.754;2022-07-21T01:14:23;4.90;;;4.45;;
65459;SDS011;52058;49.822;6.754;2022-07-21T01:16:49;6.82;;;5.00;;
65459;SDS011;52058;49.822;6.754;2022-07-21T01:19:15;8.18;;;4.93;;
65459;SDS011;52058;49.822;6.754;2022-07-21T01:21:42;6.78;;;5.57;;
65459;SDS011;52058;49.822;6.754;2022-07-21T01:24:09;7.47;;;5.60;;
65459;SDS011;52058;49.822;6.754;2022-07-21T01:26:42;8.38;;;5.72;;
65459;SDS011;52058;49.822;6.754;2022-07-21T01:29:08;6.07;;;5.32;;
65459;SDS011;52058;49.822;6.754;2022-07-21T01:31:35;7.47;;;5.18;;
65459;SDS011;52058;49.822;6.754;2022-07-21T01:34:01;5.82;;;5.18;;
65459;SDS011;52058;49.822;6.754;2022-07-21T01:36:27;7.47;;;5.18;;
65459;SDS011;52058;49.822;6.754;2022-07-21T01:38:52;5.30;;;4.80;;
65459;SDS011;52058;49.822;6.754;2022-07-21T01:41:36;6.18;;;5.30;;
65459;SDS011;52058;49.822;6.754;2022-07-21T01:44:03;7.57;;;5.80;;
65459;SDS011;52058;49.822;6.754;2022-07-21T01:46:34;7.97;;;5.80;;
65459;SDS011;52058;49.822;6.754;2022-07-21T01:49:01;6.15;;;5.55;;
65459;SDS011;52058;49.822;6.754;2022-07-21T01:51:27;7.32;;;5.20;;
65459;SDS011;52058;49.822;6.754;2022-07-21T01:53:53;8.90;;;5.50;;
65459;SDS011;52058;49.822;6.754;2022-07-21T01:56:19;8.00;;;5.88;;
65459;SDS011;52058;49.822;6.754;2022-07-21T01:58:46;6.32;;;5.63;;
65459;SDS011;52058;49.822;6.754;2022-07-21T02:01:12;6.25;;;5.65;;
65459;SDS011;52058;49.822;6.754;2022-07-21T02:03:40;6.82;;;6.07;;
65459;SDS011;52058;49.822;6.754;2022-07-21T02:06:05;8.13;;;6.43;;
65459;SDS011;52058;49.822;6.754;2022-07-21T02:08:32;7.32;;;6.15;;
65459;SDS011;52058;49.822;6.754;2022-07-21T02:10:57;7.72;;;6.30;;
65459;SDS011;52058;49.822;6.754;2022-07-21T02:13:23;8.93;;;6.10;;
65459;SDS011;52058;49.822;6.754;2022-07-21T02:15:48;6.60;;;5.75;;
65459;SDS011;52058;49.822;6.754;2022-07-21T02:18:14;6.50;;;5.80;;
65459;SDS011;52058;49.822;6.754;2022-07-21T02:20:39;9.45;;;6.28;;
65459;SDS011;52058;49.822;6.754;2022-07-21T02:23:04;6.90;;;5.78;;
65459;SDS011;52058;49.822;6.754;2022-07-21T02:25:29;7.50;;;6.43;;
65459;SDS011;52058;49.822;6.754;2022-07-21T02:27:55;7.72;;;6.10;;
65459;SDS011;52058;49.822;6.754;2022-07-21T02:30:20;7.50;;;6.30;;
65459;SDS011;52058;49.822;6.754;2022-07-21T02:32:45;7.40;;;6.47;;
65459;SDS011;52058;49.822;6.754;2022-07-21T02:35:11;7.30;;;6.22;;
65459;SDS011;52058;49.822;6.754;2022-07-21T02:41:08;7.82;;;6.25;;
65459;SDS011;52058;49.822;6.754;2022-07-21T02:43:33;9.30;;;6.78;;
65459;SDS011;52058;49.822;6.754;2022-07-21T02:45:58;6.85;;;6.15;;
65459;SDS011;52058;49.822;6.754;2022-07-21T02:48:24;9.27;;;6.40;;
65459;SDS011;52058;49.822;6.754;2022-07-21T02:50:49;8.75;;;6.20;;
65459;SDS011;52058;49.822;6.754;2022-07-21T02:53:15;9.55;;;6.72;;
65459;SDS011;52058;49.822;6.754;2022-07-21T02:55:43;8.68;;;6.68;;
65459;SDS011;52058;49.822;6.754;2022-07-21T02:58:14;6.70;;;5.97;;
65459;SDS011;52058;49.822;6.754;2022-07-21T03:00:43;7.65;;;6.18;;
65459;SDS011;52058;49.822;6.754;2022-07-21T03:03:23;8.57;;;6.55;;
65459;SDS011;52058;49.822;6.754;2022-07-21T03:05:50;8.38;;;6.68;;
65459;SDS011;52058;49.822;6.754;2022-07-21T03:08:16;10.20;;;6.50;;
65459;SDS011;52058;49.822;6.754;2022-07-21T03:10:42;8.45;;;6.85;;
65459;SDS011;52058;49.822;6.754;2022-07-21T03:13:07;9.02;;;6.55;;
65459;SDS011;52058;49.822;6.754;2022-07-21T03:15:33;7.15;;;6.00;;
65459;SDS011;52058;49.822;6.754;2022-07-21T03:17:58;8.82;;;6.10;;
65459;SDS011;52058;49.822;6.754;2022-07-21T03:20:25;7.78;;;6.45;;
65459;SDS011;52058;49.822;6.754;2022-07-21T03:22:50;8.60;;;6.95;;
65459;SDS011;52058;49.822;6.754;2022-07-21T03:25:15;7.50;;;6.55;;
65459;SDS011;52058;49.822;6.754;2022-07-21T03:27:41;7.43;;;6.50;;
65459;SDS011;52058;49.822;6.754;2022-07-21T03:30:07;7.78;;;6.90;;
65459;SDS011;52058;49.822;6.754;2022-07-21T03:32:34;9.60;;;6.60;;
65459;SDS011;52058;49.822;6.754;2022-07-21T03:34:59;8.07;;;6.55;;
65459;SDS011;52058;49.822;6.754;2022-07-21T03:37:25;9.05;;;6.90;;
65459;SDS011;52058;49.822;6.754;2022-07-21T03:39:50;9.27;;;7.30;;
65459;SDS011;52058;49.822;6.754;2022-07-21T03:42:16;7.72;;;6.50;;
65459;SDS011;52058;49.822;6.754;2022-07-21T03:44:41;7.38;;;6.68;;
65459;SDS011;52058;49.822;6.754;2022-07-21T03:47:07;8.07;;;6.65;;
65459;SDS011;52058;49.822;6.754;2022-07-21T03:49:32;8.52;;;6.88;;
65459;SDS011;52058;49.822;6.754;2022-07-21T03:51:57;9.45;;;6.90;;
65459;SDS011;52058;49.822;6.754;2022-07-21T03:54:22;9.02;;;6.95;;
65459;SDS011;52058;49.822;6.754;2022-07-21T03:56:48;7.78;;;6.68;;
65459;SDS011;52058;49.822;6.754;2022-07-21T03:59:13;9.15;;;6.90;;
65459;SDS011;52058;49.822;6.754;2022-07-21T04:01:38;10.15;;;7.45;;
65459;SDS011;52058;49.822;6.754;2022-07-21T04:04:03;7.88;;;6.63;;
65459;SDS011;52058;49.822;6.754;2022-07-21T04:06:29;7.75;;;6.60;;
65459;SDS011;52058;49.822;6.754;2022-07-21T04:08:54;8.52;;;7.20;;
65459;SDS011;52058;49.822;6.754;2022-07-21T04:11:19;7.80;;;6.80;;
65459;SDS011;52058;49.822;6.754;2022-07-21T04:13:45;9.77;;;6.65;;
65459;SDS011;52058;49.822;6.754;2022-07-21T04:16:10;8.40;;;6.10;;
65459;SDS011;52058;49.822;6.754;2022-07-21T04:18:35;7.32;;;6.53;;
65459;SDS011;52058;49.822;6.754;2022-07-21T04:21:00;9.63;;;6.57;;
65459;SDS011;52058;49.822;6.754;2022-07-21T04:23:26;8.23;;;6.63;;
65459;SDS011;52058;49.822;6.754;2022-07-21T04:25:51;8.32;;;6.75;;
65459;SDS011;52058;49.822;6.754;2022-07-21T04:28:16;8.15;;;6.25;;
65459;SDS011;52058;49.822;6.754;2022-07-21T04:30:42;9.07;;;6.57;;
65459;SDS011;52058;49.822;6.754;2022-07-21T04:33:07;7.55;;;6.15;;
65459;SDS011;52058;49.822;6.754;2022-07-21T04:35:32;7.97;;;6.35;;
65459;SDS011;52058;49.822;6.754;2022-07-21T04:37:58;7.90;;;6.10;;
65459;SDS011;52058;49.822;6.754;2022-07-21T04:40:23;8.82;;;6.55;;
65459;SDS011;52058;49.822;6.754;2022-07-21T04:42:48;7.30;;;6.35;;
65459;SDS011;52058;49.822;6.754;2022-07-21T04:45:14;6.75;;;5.80;;
65459;SDS011;52058;49.822;6.754;2022-07-21T04:50:13;7.35;;;5.80;;
65459;SDS011;52058;49.822;6.754;2022-07-21T04:52:39;10.45;;;6.38;;
65459;SDS011;52058;49.822;6.754;2022-07-21T04:55:05;7.25;;;5.95;;
65459;SDS011;52058;49.822;6.754;2022-07-21T04:57:31;8.02;;;6.68;;
65459;SDS011;52058;49.822;6.754;2022-07-21T04:59:56;9.27;;;6.15;;
65459;SDS011;52058;49.822;6.754;2022-07-21T05:02:21;8.45;;;6.72;;
65459;SDS011;52058;49.822;6.754;2022-07-21T05:04:46;8.93;;;6.65;;
65459;SDS011;52058;49.822;6.754;2022-07-21T05:07:12;7.20;;;6.50;;
65459;SDS011;52058;49.822;6.754;2022-07-21T05:09:37;10.52;;;7.00;;
65459;SDS011;52058;49.822;6.754;2022-07-21T05:12:02;7.40;;;6.30;;
65459;SDS011;52058;49.822;6.754;2022-07-21T05:14:28;8.57;;;7.15;;
65459;SDS011;52058;49.822;6.754;2022-07-21T05:16:53;9.23;;;7.25;;
65459;SDS011;52058;49.822;6.754;2022-07-21T05:19:18;8.98;;;7.15;;
65459;SDS011;52058;49.822;6.754;2022-07-21T05:21:44;9.15;;;7.35;;
65459;SDS011;52058;49.822;6.754;2022-07-21T05:24:10;10.80;;;7.80;;
65459;SDS011;52058;49.822;6.754;2022-07-21T05:26:35;9.02;;;7.88;;
65459;SDS011;52058;49.822;6.754;2022-07-21T05:29:01;9.82;;;7.15;;
65459;SDS011;52058;49.822;6.754;2022-07-21T05:31:27;10.73;;;7.40;;
65459;SDS011;52058;49.822;6.754;2022-07-21T05:33:53;10.20;;;7.43;;
65459;SDS011;52058;49.822;6.754;2022-07-21T05:36:18;9.05;;;7.68;;
65459;SDS011;52058;49.822;6.754;2022-07-21T05:38:44;9.13;;;7.18;;
65459;SDS011;52058;49.822;6.754;2022-07-21T05:41:09;9.77;;;7.70;;
65459;SDS011;52058;49.822;6.754;2022-07-21T05:43:34;10.52;;;7.20;;
65459;SDS011;52058;49.822;6.754;2022-07-21T05:45:59;11.80;;;7.20;;
65459;SDS011;52058;49.822;6.754;2022-07-21T05:48:25;11.55;;;7.30;;
65459;SDS011;52058;49.822;6.754;2022-07-21T05:50:50;11.75;;;7.75;;
65459;SDS011;52058;49.822;6.754;2022-07-21T05:53:15;8.30;;;6.68;;
65459;SDS011;52058;49.822;6.754;2022-07-21T05:55:41;10.25;;;7.40;;
65459;SDS011;52058;49.822;6.754;2022-07-21T05:58:06;11.02;;;7.13;;
65459;SDS011;52058;49.822;6.754;2022-07-21T06:00:31;10.70;;;7.35;;
65459;SDS011;52058;49.822;6.754;2022-07-21T06:02:57;10.60;;;7.45;;
65459;SDS011;52058;49.822;6.754;2022-07-21T06:05:22;9.85;;;7.22;;
65459;SDS011;52058;49.822;6.754;2022-07-21T06:07:47;8.68;;;7.18;;
65459;SDS011;52058;49.822;6.754;2022-07-21T06:10:13;9.07;;;6.90;;
65459;SDS011;52058;49.822;6.754;2022-07-21T06:12:39;7.93;;;7.10;;
65459;SDS011;52058;49.822;6.754;2022-07-21T06:15:04;8.70;;;7.07;;
65459;SDS011;52058;49.822;6.754;2022-07-21T06:17:30;7.80;;;6.90;;
65459;SDS011;52058;49.822;6.754;2022-07-21T06:19:57;9.38;;;7.03;;
65459;SDS011;52058;49.822;6.754;2022-07-21T06:22:23;8.27;;;7.05;;
65459;SDS011;52058;49.822;6.754;2022-07-21T06:24:49;9.10;;;7.63;;
65459;SDS011;52058;49.822;6.754;2022-07-21T06:27:14;8.35;;;6.65;;
65459;SDS011;52058;49.822;6.754;2022-07-21T06:29:39;8.45;;;7.03;;
65459;SDS011;52058;49.822;6.754;2022-07-21T06:32:05;8.45;;;7.15;;
65459;SDS011;52058;49.822;6.754;2022-07-21T06:34:30;8.15;;;7.22;;
65459;SDS011;52058;49.822;6.754;2022-07-21T06:36:55;8.53;;;7.37;;
65459;SDS011;52058;49.822;6.754;2022-07-21T06:39:21;9.30;;;7.18;;
65459;SDS011;52058;49.822;6.754;2022-07-21T06:41:46;11.73;;;7.20;;
65459;SDS011;52058;49.822;6.754;2022-07-21T06:44:11;11.60;;;6.43;;
65459;SDS011;52058;49.822;6.754;2022-07-21T06:46:36;20.67;;;7.15;;
65459;SDS011;52058;49.822;6.754;2022-07-21T06:49:02;9.73;;;7.20;;
65459;SDS011;52058;49.822;6.754;2022-07-21T06:51:27;9.13;;;6.45;;
65459;SDS011;52058;49.822;6.754;2022-07-21T06:53:53;12.77;;;7.38;;
65459;SDS011;52058;49.822;6.754;2022-07-21T06:56:19;7.80;;;6.63;;
65459;SDS011;52058;49.822;6.754;2022-07-21T06:58:45;10.93;;;7.03;;
65459;SDS011;52058;49.822;6.754;2022-07-21T07:01:11;9.77;;;6.68;;
65459;SDS011;52058;49.822;6.754;2022-07-21T07:03:38;12.73;;;6.38;;
65459;SDS011;52058;49.822;6.754;2022-07-21T07:06:04;9.00;;;6.45;;
65459;SDS011;52058;49.822;6.754;2022-07-21T07:08:31;9.13;;;6.32;;
65459;SDS011;52058;49.822;6.754;2022-07-21T07:10:57;7.38;;;5.78;;
65459;SDS011;52058;49.822;6.754;2022-07-21T07:13:22;8.50;;;6.03;;
65459;SDS011;52058;49.822;6.754;2022-07-21T07:15:48;7.20;;;5.68;;
65459;SDS011;52058;49.822;6.754;2022-07-21T07:18:13;7.22;;;5.20;;
65459;SDS011;52058;49.822;6.754;2022-07-21T07:20:38;6.03;;;5.35;;
65459;SDS011;52058;49.822;6.754;2022-07-21T07:23:04;8.80;;;4.88;;
65459;SDS011;52058;49.822;6.754;2022-07-21T07:25:31;5.20;;;4.70;;
65459;SDS011;52058;49.822;6.754;2022-07-21T07:27:57;6.85;;;4.70;;
65459;SDS011;52058;49.822;6.754;2022-07-21T07:30:23;6.70;;;5.38;;
65459;SDS011;52058;49.822;6.754;2022-07-21T07:32:48;7.10;;;5.53;;
65459;SDS011;52058;49.822;6.754;2022-07-21T07:35:14;6.63;;;5.07;;
65459;SDS011;52058;49.822;6.754;2022-07-21T07:37:41;5.90;;;5.30;;
65459;SDS011;52058;49.822;6.754;2022-07-21T07:40:09;5.72;;;4.80;;
65459;SDS011;52058;49.822;6.754;2022-07-21T07:42:45;6.72;;;4.95;;
65459;SDS011;52058;49.822;6.754;2022-07-21T07:45:11;5.95;;;4.75;;
65459;SDS011;52058;49.822;6.754;2022-07-21T07:47:37;6.88;;;5.15;;
65459;SDS011;52058;49.822;6.754;2022-07-21T07:50:04;7.82;;;4.78;;
65459;SDS011;52058;49.822;6.754;2022-07-21T07:52:31;7.32;;;4.45;;
65459;SDS011;52058;49.822;6.754;2022-07-21T07:54:56;5.80;;;4.07;;
65459;SDS011;52058;49.822;6.754;2022-07-21T07:57:22;6.32;;;4.20;;
65459;SDS011;52058;49.822;6.754;2022-07-21T07:59:47;6.47;;;4.32;;
65459;SDS011;52058;49.822;6.754;2022-07-21T08:02:12;5.18;;;3.80;;
65459;SDS011;52058;49.822;6.754;2022-07-21T08:04:38;5.95;;;4.38;;
65459;SDS011;52058;49.822;6.754;2022-07-21T08:07:05;8.48;;;4.28;;
65459;SDS011;52058;49.822;6.754;2022-07-21T08:09:31;5.88;;;3.95;;
65459;SDS011;52058;49.822;6.754;2022-07-21T08:11:56;7.80;;;4.35;;
65459;SDS011;52058;49.822;6.754;2022-07-21T08:14:22;7.27;;;4.37;;
65459;SDS011;52058;49.822;6.754;2022-07-21T08:16:47;7.65;;;4.45;;
65459;SDS011;52058;49.822;6.754;2022-07-21T08:19:13;4.53;;;4.07;;
65459;SDS011;52058;49.822;6.754;2022-07-21T08:21:38;5.22;;;4.10;;
65459;SDS011;52058;49.822;6.754;2022-07-21T08:24:03;8.63;;;4.37;;
65459;SDS011;52058;49.822;6.754;2022-07-21T08:26:29;6.55;;;4.30;;
65459;SDS011;52058;49.822;6.754;2022-07-21T08:28:55;8.38;;;4.57;;
65459;SDS011;52058;49.822;6.754;2022-07-21T08:31:21;9.15;;;4.30;;
65459;SDS011;52058;49.822;6.754;2022-07-21T08:33:47;5.43;;;4.10;;
65459;SDS011;52058;49.822;6.754;2022-07-21T08:36:13;4.32;;;3.92;;
65459;SDS011;52058;49.822;6.754;2022-07-21T08:38:38;4.85;;;3.72;;
65459;SDS011;52058;49.822;6.754;2022-07-21T08:41:03;5.97;;;3.80;;
65459;SDS011;52058;49.822;6.754;2022-07-21T08:43:30;5.43;;;3.92;;
65459;SDS011;52058;49.822;6.754;2022-07-21T08:45:55;5.07;;;4.03;;
65459;SDS011;52058;49.822;6.754;2022-07-21T08:48:23;4.57;;;4.05;;
65459;SDS011;52058;49.822;6.754;2022-07-21T08:50:49;6.93;;;4.20;;
65459;SDS011;52058;49.822;6.754;2022-07-21T08:53:15;5.60;;;4.47;;
65459;SDS011;52058;49.822;6.754;2022-07-21T08:55:40;4.75;;;3.90;;
65459;SDS011;52058;49.822;6.754;2022-07-21T08:58:07;4.55;;;4.10;;
65459;SDS011;52058;49.822;6.754;2022-07-21T09:00:37;7.47;;;4.25;;
65459;SDS011;52058;49.822;6.754;2022-07-21T09:03:37;5.88;;;4.13;;
65459;SDS011;52058;49.822;6.754;2022-07-21T09:06:30;4.10;;;3.80;;
65459;SDS011;52058;49.822;6.754;2022-07-21T09:11:22;7.78;;;4.30;;
65459;SDS011;52058;49.822;6.754;2022-07-21T09:13:50;6.25;;;3.95;;
65459;SDS011;52058;49.822;6.754;2022-07-21T09:16:37;6.70;;;4.07;;
65459;SDS011;52058;49.822;6.754;2022-07-21T09:19:05;5.85;;;4.13;;
65459;SDS011;52058;49.822;6.754;2022-07-21T09:21:34;6.75;;;4.05;;
65459;SDS011;52058;49.822;6.754;2022-07-21T09:29:24;6.13;;;3.95;;
65459;SDS011;52058;49.822;6.754;2022-07-21T09:31:50;12.32;;;4.60;;
65459;SDS011;52058;49.822;6.754;2022-07-21T09:34:16;6.15;;;4.43;;
65459;SDS011;52058;49.822;6.754;2022-07-21T09:36:55;6.03;;;4.72;;
65459;SDS011;52058;49.822;6.754;2022-07-21T09:42:13;5.35;;;4.85;;
65459;SDS011;52058;49.822;6.754;2022-07-21T09:44:44;7.22;;;4.82;;
65459;SDS011;52058;49.822;6.754;2022-07-21T09:47:12;6.68;;;4.20;;
65459;SDS011;52058;49.822;6.754;2022-07-21T09:49:40;5.13;;;4.35;;
65459;SDS011;52058;49.822;6.754;2022-07-21T09:54:55;5.20;;;4.63;;
65459;SDS011;52058;49.822;6.754;2022-07-21T09:57:23;7.32;;;4.57;;
65459;SDS011;52058;49.822;6.754;2022-07-21T09:59:50;8.60;;;5.00;;
65459;SDS011;52058;49.822;6.754;2022-07-21T10:04:55;6.30;;;5.00;;
65459;SDS011;52058;49.822;6.754;2022-07-21T10:09:57;5.50;;;4.97;;
65459;SDS011;52058;49.822;6.754;2022-07-21T10:12:24;7.22;;;4.45;;
65459;SDS011;52058;49.822;6.754;2022-07-21T10:14:51;5.43;;;4.45;;
65459;SDS011;52058;49.822;6.754;2022-07-21T10:17:17;4.88;;;4.38;;
65459;SDS011;52058;49.822;6.754;2022-07-21T10:19:49;8.10;;;5.13;;
65459;SDS011;52058;49.822;6.754;2022-07-21T10:25:02;6.50;;;4.55;;
65459;SDS011;52058;49.822;6.754;2022-07-21T10:27:28;5.57;;;4.30;;
65459;SDS011;52058;49.822;6.754;2022-07-21T10:29:55;6.03;;;4.90;;
65459;SDS011;52058;49.822;6.754;2022-07-21T10:32:28;6.70;;;5.07;;
65459;SDS011;52058;49.822;6.754;2022-07-21T10:34:56;6.63;;;5.43;;
65459;SDS011;52058;49.822;6.754;2022-07-21T10:40:03;12.68;;;6.45;;
65459;SDS011;52058;49.822;6.754;2022-07-21T10:42:29;8.48;;;5.93;;
65459;SDS011;52058;49.822;6.754;2022-07-21T10:44:55;8.10;;;6.05;;
65459;SDS011;52058;49.822;6.754;2022-07-21T10:47:21;6.88;;;5.68;;
65459;SDS011;52058;49.822;6.754;2022-07-21T10:49:54;7.70;;;5.60;;
65459;SDS011;52058;49.822;6.754;2022-07-21T10:57:35;5.93;;;5.30;;
65459;SDS011;52058;49.822;6.754;2022-07-21T11:02:56;6.93;;;5.88;;
65459;SDS011;52058;49.822;6.754;2022-07-21T11:05:23;8.27;;;6.13;;
65459;SDS011;52058;49.822;6.754;2022-07-21T11:10:39;6.38;;;5.72;;
65459;SDS011;52058;49.822;6.754;2022-07-21T11:13:16;6.75;;;6.05;;
65459;SDS011;52058;49.822;6.754;2022-07-21T11:15:43;7.30;;;5.63;;
65459;SDS011;52058;49.822;6.754;2022-07-21T11:18:10;7.88;;;5.55;;
65459;SDS011;52058;49.822;6.754;2022-07-21T11:20:35;7.80;;;5.70;;
65459;SDS011;52058;49.822;6.754;2022-07-21T11:23:01;8.85;;;5.30;;
65459;SDS011;52058;49.822;6.754;2022-07-21T11:25:29;12.27;;;5.75;;
65459;SDS011;52058;49.822;6.754;2022-07-21T11:27:54;8.27;;;5.75;;
65459;SDS011;52058;49.822;6.754;2022-07-21T11:30:20;6.60;;;5.78;;
65459;SDS011;52058;49.822;6.754;2022-07-21T11:32:46;7.15;;;5.68;;
65459;SDS011;52058;49.822;6.754;2022-07-21T11:35:12;6.78;;;6.18;;
65459;SDS011;52058;49.822;6.754;2022-07-21T11:37:39;6.95;;;5.70;;
65459;SDS011;52058;49.822;6.754;2022-07-21T11:42:38;7.00;;;5.60;;
65459;SDS011;52058;49.822;6.754;2022-07-21T11:45:05;6.60;;;5.90;;
65459;SDS011;52058;49.822;6.754;2022-07-21T11:47:31;6.95;;;5.50;;
65459;SDS011;52058;49.822;6.754;2022-07-21T11:49:58;6.70;;;6.07;;
65459;SDS011;52058;49.822;6.754;2022-07-21T11:52:26;9.23;;;6.03;;
65459;SDS011;52058;49.822;6.754;2022-07-21T11:54:53;7.50;;;5.35;;
65459;SDS011;52058;49.822;6.754;2022-07-21T11:57:20;8.25;;;5.78;;
65459;SDS011;52058;49.822;6.754;2022-07-21T11:59:47;7.47;;;5.47;;
65459;SDS011;52058;49.822;6.754;2022-07-21T12:02:14;6.85;;;5.90;;
65459;SDS011;52058;49.822;6.754;2022-07-21T12:04:46;10.97;;;5.60;;
65459;SDS011;52058;49.822;6.754;2022-07-21T12:10:04;7.55;;;6.00;;
65459;SDS011;52058;49.822;6.754;2022-07-21T12:15:20;8.00;;;5.80;;
65459;SDS011;52058;49.822;6.754;2022-07-21T12:17:54;7.93;;;6.28;;
65459;SDS011;52058;49.822;6.754;2022-07-21T12:23:01;7.03;;;5.18;;
65459;SDS011;52058;49.822;6.754;2022-07-21T12:27:59;9.73;;;5.95;;
65459;SDS011;52058;49.822;6.754;2022-07-21T12:30:31;8.05;;;5.70;;
65459;SDS011;52058;49.822;6.754;2022-07-21T12:33:02;7.75;;;5.32;;
65459;SDS011;52058;49.822;6.754;2022-07-21T12:35:33;8.80;;;5.72;;
65459;SDS011;52058;49.822;6.754;2022-07-21T12:38:07;7.53;;;5.40;;
65459;SDS011;52058;49.822;6.754;2022-07-21T12:40:35;7.18;;;5.50;;
65459;SDS011;52058;49.822;6.754;2022-07-21T12:43:03;6.10;;;5.35;;
65459;SDS011;52058;49.822;6.754;2022-07-21T12:45:43;5.80;;;5.15;;
65459;SDS011;52058;49.822;6.754;2022-07-21T12:48:10;5.78;;;4.95;;
65459;SDS011;52058;49.822;6.754;2022-07-21T12:50:37;7.22;;;5.22;;
65459;SDS011;52058;49.822;6.754;2022-07-21T12:53:14;8.57;;;5.18;;
65459;SDS011;52058;49.822;6.754;2022-07-21T12:55:40;7.03;;;4.60;;
65459;SDS011;52058;49.822;6.754;2022-07-21T12:58:05;6.18;;;5.20;;
65459;SDS011;52058;49.822;6.754;2022-07-21T13:00:30;7.60;;;5.22;;
65459;SDS011;52058;49.822;6.754;2022-07-21T13:02:56;7.68;;;5.65;;
65459;SDS011;52058;49.822;6.754;2022-07-21T13:05:23;6.97;;;5.20;;
65459;SDS011;52058;49.822;6.754;2022-07-21T13:07:49;6.82;;;4.88;;
65459;SDS011;52058;49.822;6.754;2022-07-21T13:10:15;7.32;;;4.88;;
65459;SDS011;52058;49.822;6.754;2022-07-21T13:12:41;6.45;;;4.63;;
65459;SDS011;52058;49.822;6.754;2022-07-21T13:15:06;6.78;;;4.63;;
65459;SDS011;52058;49.822;6.754;2022-07-21T13:17:32;7.43;;;4.65;;
65459;SDS011;52058;49.822;6.754;2022-07-21T13:19:57;7.07;;;4.50;;
65459;SDS011;52058;49.822;6.754;2022-07-21T13:22:23;7.82;;;5.15;;
65459;SDS011;52058;49.822;6.754;2022-07-21T13:24:48;6.78;;;4.65;;
65459;SDS011;52058;49.822;6.754;2022-07-21T13:27:13;6.13;;;5.00;;
65459;SDS011;52058;49.822;6.754;2022-07-21T13:29:39;5.65;;;4.50;;
65459;SDS011;52058;49.822;6.754;2022-07-21T13:32:05;6.38;;;4.80;;
65459;SDS011;52058;49.822;6.754;2022-07-21T13:34:31;7.55;;;4.53;;
65459;SDS011;52058;49.822;6.754;2022-07-21T13:36:56;5.68;;;4.55;;
65459;SDS011;52058;49.822;6.754;2022-07-21T13:39:22;5.78;;;4.28;;
65459;SDS011;52058;49.822;6.754;2022-07-21T13:41:51;5.70;;;4.45;;
65459;SDS011;52058;49.822;6.754;2022-07-21T13:44:19;6.45;;;4.90;;
65459;SDS011;52058;49.822;6.754;2022-07-21T13:46:45;5.93;;;4.47;;
65459;SDS011;52058;49.822;6.754;2022-07-21T13:49:10;5.53;;;4.43;;
65459;SDS011;52058;49.822;6.754;2022-07-21T13:51:35;6.22;;;5.00;;
65459;SDS011;52058;49.822;6.754;2022-07-21T13:54:01;5.80;;;4.90;;
65459;SDS011;52058;49.822;6.754;2022-07-21T13:56:26;5.50;;;4.93;;
65459;SDS011;52058;49.822;6.754;2022-07-21T13:58:52;6.55;;;4.82;;
65459;SDS011;52058;49.822;6.754;2022-07-21T14:01:17;5.25;;;4.70;;
65459;SDS011;52058;49.822;6.754;2022-07-21T14:03:43;9.05;;;4.75;;
65459;SDS011;52058;49.822;6.754;2022-07-21T14:06:09;6.97;;;4.95;;
65459;SDS011;52058;49.822;6.754;2022-07-21T14:08:35;6.72;;;4.88;;
65459;SDS011;52058;49.822;6.754;2022-07-21T14:11:01;5.55;;;4.97;;
65459;SDS011;52058;49.822;6.754;2022-07-21T14:13:27;5.15;;;4.65;;
65459;SDS011;52058;49.822;6.754;2022-07-21T14:15:53;5.18;;;4.68;;
65459;SDS011;52058;49.822;6.754;2022-07-21T14:18:18;6.22;;;5.40;;
65459;SDS011;52058;49.822;6.754;2022-07-21T14:20:44;5.22;;;4.72;;
65459;SDS011;52058;49.822;6.754;2022-07-21T14:23:09;5.50;;;5.00;;
65459;SDS011;52058;49.822;6.754;2022-07-21T14:25:34;5.20;;;4.65;;
65459;SDS011;52058;49.822;6.754;2022-07-21T14:27:59;5.88;;;4.43;;
65459;SDS011;52058;49.822;6.754;2022-07-21T14:30:25;6.97;;;4.32;;
65459;SDS011;52058;49.822;6.754;2022-07-21T14:32:52;4.95;;;4.30;;
65459;SDS011;52058;49.822;6.754;2022-07-21T14:35:18;6.43;;;4.90;;
65459;SDS011;52058;49.822;6.754;2022-07-21T14:37:45;4.95;;;4.53;;
65459;SDS011;52058;49.822;6.754;2022-07-21T14:40:12;6.93;;;4.85;;
65459;SDS011;52058;49.822;6.754;2022-07-21T14:42:38;6.00;;;4.93;;
65459;SDS011;52058;49.822;6.754;2022-07-21T14:45:04;5.78;;;4.95;;
65459;SDS011;52058;49.822;6.754;2022-07-21T14:47:31;5.25;;;4.60;;
65459;SDS011;52058;49.822;6.754;2022-07-21T14:49:56;5.07;;;4.57;;
65459;SDS011;52058;49.822;6.754;2022-07-21T14:52:22;5.57;;;4.72;;
65459;SDS011;52058;49.822;6.754;2022-07-21T14:54:47;5.13;;;4.53;;
65459;SDS011;52058;49.822;6.754;2022-07-21T14:57:13;8.43;;;4.97;;
65459;SDS011;52058;49.822;6.754;2022-07-21T14:59:38;5.55;;;4.95;;
65459;SDS011;52058;49.822;6.754;2022-07-21T15:02:04;6.38;;;5.43;;
65459;SDS011;52058;49.822;6.754;2022-07-21T15:04:30;5.97;;;5.10;;
65459;SDS011;52058;49.822;6.754;2022-07-21T15:06:55;6.88;;;4.53;;
65459;SDS011;52058;49.822;6.754;2022-07-21T15:09:20;5.60;;;4.70;;
65459;SDS011;52058;49.822;6.754;2022-07-21T15:11:46;5.32;;;4.75;;
65459;SDS011;52058;49.822;6.754;2022-07-21T15:14:11;6.95;;;5.05;;
65459;SDS011;52058;49.822;6.754;2022-07-21T15:16:37;6.90;;;5.65;;
65459;SDS011;52058;49.822;6.754;2022-07-21T15:19:02;6.00;;;5.00;;
65459;SDS011;52058;49.822;6.754;2022-07-21T15:21:27;7.05;;;5.10;;
65459;SDS011;52058;49.822;6.754;2022-07-21T15:23:53;5.38;;;4.80;;
65459;SDS011;52058;49.822;6.754;2022-07-21T15:26:18;6.70;;;4.90;;
65459;SDS011;52058;49.822;6.754;2022-07-21T15:28:43;5.65;;;5.10;;
65459;SDS011;52058;49.822;6.754;2022-07-21T15:31:08;7.13;;;5.10;;
65459;SDS011;52058;49.822;6.754;2022-07-21T15:33:34;6.53;;;5.37;;
65459;SDS011;52058;49.822;6.754;2022-07-21T15:35:59;7.30;;;5.25;;
65459;SDS011;52058;49.822;6.754;2022-07-21T15:38:25;6.25;;;5.00;;